createdAt,value
2022-09-26T00:02:56.697Z,99.90
2022-09-26T00:07:56.301Z,99.90
2022-09-26T00:12:55.413Z,99.90
2022-09-26T00:17:53.674Z,99.90
2022-09-26T00:22:51.898Z,99.90
2022-09-26T00:27:51.539Z,99.90
2022-09-26T00:32:49.902Z,99.90
2022-09-26T00:37:48.178Z,99.90
2022-09-26T00:42:46.985Z,99.90
2022-09-26T00:47:49.811Z,99.90
2022-09-26T00:52:54.304Z,99.90
2022-09-26T00:57:58.901Z,99.90
2022-09-26T01:02:59.440Z,99.90
2022-09-26T01:07:58.392Z,99.90
2022-09-26T01:12:58.750Z,99.90
2022-09-26T01:17:59.466Z,99.90
2022-09-26T01:23:34.355Z,99.90
2022-09-26T01:28:52.018Z,99.90
2022-09-26T01:33:59.407Z,99.90
2022-09-26T01:39:13.709Z,99.90
2022-09-26T01:44:30.955Z,99.90
2022-09-26T01:49:35.287Z,99.90
2022-09-26T01:54:39.511Z,99.90
2022-09-26T01:59:42.918Z,99.90
2022-09-26T02:04:46.312Z,99.90
2022-09-26T02:09:48.933Z,99.90
2022-09-26T02:14:50.332Z,99.90
2022-09-26T02:19:57.509Z,99.90
2022-09-26T02:24:55.742Z,99.90
2022-09-26T02:29:54.303Z,99.90
2022-09-26T02:34:55.330Z,99.90
2022-09-26T02:39:56.036Z,99.90
2022-09-26T02:45:10.577Z,99.90
2022-09-26T02:50:25.504Z,99.90
2022-09-26T02:55:29.993Z,99.90
2022-09-26T03:00:33.617Z,99.90
2022-09-26T03:05:36.598Z,99.90
2022-09-26T03:10:36.622Z,99.90
2022-09-26T03:15:37.685Z,99.90
2022-09-26T03:20:37.754Z,99.90
2022-09-26T03:25:36.079Z,99.90
2022-09-26T03:30:40.658Z,99.90
2022-09-26T03:36:00.804Z,99.90
2022-09-26T03:40:59.605Z,99.90
2022-09-26T03:46:33.946Z,99.90
2022-09-26T03:51:36.003Z,99.90
2022-09-26T03:56:34.869Z,99.90
2022-09-26T04:01:33.194Z,99.90
2022-09-26T04:06:31.639Z,99.90
2022-09-26T04:11:33.416Z,99.90
2022-09-26T04:16:32.536Z,99.90
2022-09-26T04:21:40.663Z,99.90
2022-09-26T04:26:41.566Z,99.90
2022-09-26T04:31:40.410Z,99.90
2022-09-26T04:36:43.968Z,99.90
2022-09-26T04:41:43.797Z,99.90
2022-09-26T04:46:42.655Z,99.90
2022-09-26T04:51:41.837Z,99.90
2022-09-26T04:56:41.335Z,99.90
2022-09-26T05:01:41.753Z,99.90
2022-09-26T05:06:46.675Z,99.90
2022-09-26T05:11:55.071Z,99.90
2022-09-26T05:16:54.602Z,99.90
2022-09-26T05:21:53.561Z,99.90
2022-09-26T05:26:53.392Z,99.90
2022-09-26T05:31:54.735Z,99.90
2022-09-26T05:36:56.499Z,99.90
2022-09-26T05:41:55.555Z,99.90
2022-09-26T05:46:57.423Z,99.90
2022-09-26T05:51:58.053Z,99.90
2022-09-26T05:56:56.312Z,99.90
2022-09-26T06:02:21.020Z,99.90
2022-09-26T06:07:38.294Z,99.90
2022-09-26T06:12:41.399Z,99.90
2022-09-26T06:17:41.795Z,99.90
2022-09-26T06:22:41.753Z,99.90
2022-09-26T06:27:39.967Z,99.90
2022-09-26T06:32:40.020Z,99.90
2022-09-26T06:37:51.707Z,99.90
2022-09-26T06:42:50.015Z,99.90
2022-09-26T06:48:03.636Z,99.90
2022-09-26T06:53:22.709Z,99.90
2022-09-26T06:58:21.568Z,99.90
2022-09-26T07:03:31.636Z,99.90
2022-09-26T07:09:14.553Z,99.90
2022-09-26T07:14:17.287Z,99.90
2022-09-26T07:19:23.757Z,99.90
2022-09-26T07:24:35.042Z,99.90
2022-09-26T07:29:34.438Z,99.90
2022-09-26T07:34:34.657Z,99.90
2022-09-26T07:39:33.179Z,99.90
2022-09-26T07:50:09.210Z,99.90
2022-09-26T07:55:28.994Z,99.90
2022-09-26T08:01:02.495Z,99.90
2022-09-26T08:06:21.079Z,99.90
2022-09-26T08:11:20.905Z,99.90
2022-09-26T08:16:28.456Z,99.90
2022-09-26T08:21:31.586Z,99.90
2022-09-26T08:26:30.642Z,99.90
2022-09-26T08:31:54.993Z,99.90
2022-09-26T08:36:55.056Z,99.90
2022-09-26T08:42:18.067Z,99.90
2022-09-26T08:47:49.820Z,99.90
2022-09-26T08:53:09.854Z,99.90
2022-09-26T08:58:19.787Z,99.90
2022-09-26T09:03:27.242Z,99.90
2022-09-26T09:08:35.889Z,99.90
2022-09-26T09:14:04.548Z,99.90
2022-09-26T09:19:38.589Z,99.90
2022-09-26T09:25:05.500Z,99.90
2022-09-26T09:30:17.588Z,99.90
2022-09-26T09:35:44.273Z,99.90
2022-09-26T09:41:02.229Z,99.90
2022-09-26T09:46:05.900Z,99.90
2022-09-26T09:51:20.061Z,99.90
2022-09-26T09:56:29.770Z,99.90
2022-09-26T10:01:33.361Z,99.90
2022-09-26T10:06:45.245Z,99.90
2022-09-26T10:11:52.486Z,99.90
2022-09-26T10:17:29.659Z,99.90
2022-09-26T10:22:55.607Z,99.90
2022-09-26T10:28:05.276Z,99.90
2022-09-26T10:33:06.132Z,99.90
2022-09-26T10:38:22.572Z,99.90
2022-09-26T10:43:54.371Z,99.90
2022-09-26T10:49:23.642Z,99.90
2022-09-26T10:54:48.587Z,99.90
2022-09-26T10:59:49.653Z,99.90
2022-09-26T11:05:06.270Z,99.90
2022-09-26T11:10:26.319Z,99.90
2022-09-26T11:15:42.895Z,99.90
2022-09-26T11:20:50.462Z,99.60
2022-09-26T11:26:00.088Z,99.10
2022-09-26T11:31:06.566Z,99.40
2022-09-26T11:36:22.593Z,99.50
2022-09-26T11:41:38.896Z,99.30
2022-09-26T11:46:49.811Z,98.90
2022-09-26T11:52:14.480Z,99.00
2022-09-26T11:57:23.960Z,98.80
2022-09-26T12:02:43.573Z,99.10
2022-09-26T12:07:49.462Z,98.60
2022-09-26T12:13:01.221Z,98.70
2022-09-26T12:18:13.744Z,98.50
2022-09-26T12:23:22.527Z,98.40
2022-09-26T12:28:30.824Z,98.60
2022-09-26T12:33:55.371Z,98.90
2022-09-26T12:39:06.298Z,98.80
2022-09-26T12:44:31.309Z,98.80
2022-09-26T12:49:48.445Z,98.90
2022-09-26T12:55:00.160Z,99.00
2022-09-26T13:00:16.755Z,99.10
2022-09-26T13:05:32.784Z,98.80
2022-09-26T13:10:48.170Z,98.40
2022-09-26T13:16:04.107Z,98.70
2022-09-26T13:21:10.070Z,98.60
2022-09-26T13:26:14.197Z,98.80
2022-09-26T13:31:19.009Z,98.90
2022-09-26T13:36:22.214Z,99.00
2022-09-26T13:41:39.264Z,99.20
2022-09-26T13:46:50.358Z,99.40
2022-09-26T13:51:59.284Z,99.50
2022-09-26T13:56:57.496Z,99.30
2022-09-26T14:02:18.072Z,99.20
2022-09-26T14:07:36.922Z,99.10
2022-09-26T14:12:56.791Z,99.20
2022-09-26T14:18:17.159Z,99.40
2022-09-26T14:23:42.791Z,99.40
2022-09-26T14:28:47.927Z,99.70
2022-09-26T14:33:47.501Z,99.90
2022-09-26T14:38:49.662Z,99.90
2022-09-26T14:43:49.366Z,99.90
2022-09-26T14:48:47.979Z,99.90
2022-09-26T14:53:55.943Z,99.90
2022-09-26T14:58:55.377Z,99.90
2022-09-26T15:03:59.321Z,99.90
2022-09-26T15:09:00.336Z,99.90
2022-09-26T15:14:01.614Z,99.90
2022-09-26T15:19:04.349Z,99.90
2022-09-26T15:24:06.138Z,99.90
2022-09-26T15:29:08.898Z,99.90
2022-09-26T15:34:13.363Z,99.90
2022-09-26T15:39:38.650Z,99.90
2022-09-26T15:44:37.019Z,99.90
2022-09-26T15:49:39.683Z,99.90
2022-09-26T15:54:39.634Z,99.90
2022-09-26T15:59:41.513Z,99.90
2022-09-26T16:04:42.943Z,99.90
2022-09-26T16:09:45.791Z,99.90
2022-09-26T16:14:48.002Z,99.90
2022-09-26T16:19:48.912Z,99.90
2022-09-26T16:24:50.293Z,99.90
2022-09-26T16:29:52.236Z,99.90
2022-09-26T16:34:50.880Z,99.90
2022-09-26T16:39:59.408Z,99.90
2022-09-26T16:44:58.010Z,99.90
2022-09-26T16:49:56.606Z,99.90
2022-09-26T16:54:57.099Z,99.90
2022-09-26T17:00:18.846Z,99.90
2022-09-26T17:05:20.229Z,99.90
2022-09-26T17:10:21.965Z,99.90
2022-09-26T17:15:28.400Z,99.90
2022-09-26T17:20:27.221Z,99.90
2022-09-26T17:25:27.768Z,99.90
2022-09-26T17:30:26.165Z,99.90
2022-09-26T17:35:26.914Z,99.90
2022-09-26T17:40:28.722Z,99.90
2022-09-26T17:45:30.163Z,99.90
2022-09-26T17:50:31.409Z,99.90
2022-09-26T17:55:32.129Z,99.90
2022-09-26T18:00:38.789Z,99.90
2022-09-26T18:05:39.329Z,99.90
2022-09-26T18:10:43.342Z,99.90
2022-09-26T18:15:41.788Z,99.90
2022-09-26T18:20:41.431Z,99.90
2022-09-26T18:25:41.135Z,99.90
2022-09-26T18:30:43.191Z,99.90
2022-09-26T18:35:44.083Z,99.90
2022-09-26T18:40:50.098Z,99.90
2022-09-26T18:45:48.842Z,99.90
2022-09-26T18:50:47.364Z,99.90
2022-09-26T18:56:05.097Z,99.90
2022-09-26T19:01:05.815Z,99.90
2022-09-26T19:06:07.029Z,99.90
2022-09-26T19:11:12.871Z,99.90
2022-09-26T19:16:11.594Z,99.90
2022-09-26T19:21:17.879Z,99.90
2022-09-26T19:26:30.972Z,99.90
2022-09-26T19:31:30.585Z,99.90
2022-09-26T19:36:28.921Z,99.90
2022-09-26T19:41:28.591Z,99.90
2022-09-26T19:46:28.799Z,99.90
2022-09-26T19:51:27.357Z,99.90
2022-09-26T19:56:25.845Z,99.90
2022-09-26T20:01:25.552Z,99.90
2022-09-26T20:06:26.166Z,99.90
2022-09-26T20:11:24.466Z,99.90
2022-09-26T20:16:23.445Z,99.90
2022-09-26T20:21:27.120Z,99.90
2022-09-26T20:26:26.810Z,99.90
2022-09-26T20:31:27.215Z,99.90
2022-09-26T20:36:29.821Z,99.90
2022-09-26T20:41:31.986Z,99.90
2022-09-26T20:46:34.680Z,99.90
2022-09-26T20:51:35.144Z,99.90
2022-09-26T20:56:33.630Z,99.90
2022-09-26T21:01:32.013Z,99.90
2022-09-26T21:06:35.723Z,99.90
2022-09-26T21:11:34.249Z,99.90
2022-09-26T21:16:32.973Z,99.90
2022-09-26T21:21:31.915Z,99.90
2022-09-26T21:26:48.826Z,99.90
2022-09-26T21:31:50.483Z,99.90
2022-09-26T21:36:50.372Z,99.90
2022-09-26T21:41:53.034Z,99.90
2022-09-26T21:46:51.945Z,99.90
2022-09-26T21:51:55.604Z,99.90
2022-09-26T21:57:02.075Z,99.90
2022-09-26T22:02:00.699Z,99.90
2022-09-26T22:06:58.999Z,99.90
2022-09-26T22:11:59.248Z,99.90
2022-09-26T22:16:57.822Z,99.90
2022-09-26T22:21:56.623Z,99.90
2022-09-26T22:26:54.953Z,99.90
2022-09-26T22:31:54.848Z,99.90
2022-09-26T22:36:53.473Z,99.90
2022-09-26T22:41:52.825Z,99.90
2022-09-26T22:46:51.454Z,99.90
2022-09-26T22:51:51.482Z,99.90
2022-09-26T22:56:49.852Z,99.90
2022-09-26T23:01:49.934Z,99.90
2022-09-26T23:27:00.055Z,99.90
2022-09-26T23:31:58.928Z,99.90
2022-09-26T23:36:57.140Z,99.90
2022-09-26T23:41:55.672Z,99.90
2022-09-26T23:46:55.334Z,99.90
2022-09-26T23:51:53.960Z,99.90
2022-09-26T23:56:52.311Z,99.90
